sensor_id;sensor_type;location;lat;lon;timestamp;P1;durP1;ratioP1;P2;durP2;ratioP2
76964;SDS011;65903;51.452;7.198;2023-03-13T00:00:02;15.35;;;4.13;;
76964;SDS011;65903;51.452;7.198;2023-03-13T00:01:13;14.55;;;3.60;;
76964;SDS011;65903;51.452;7.198;2023-03-13T00:02:18;11.88;;;3.33;;
76964;SDS011;65903;51.452;7.198;2023-03-13T00:03:21;13.70;;;3.33;;
76964;SDS011;65903;51.452;7.198;2023-03-13T00:04:22;14.23;;;3.38;;
76964;SDS011;65903;51.452;7.198;2023-03-13T00:05:25;11.52;;;2.97;;
76964;SDS011;65903;51.452;7.198;2023-03-13T00:07:32;12.07;;;4.25;;
76964;SDS011;65903;51.452;7.198;2023-03-13T00:08:33;10.43;;;3.70;;
76964;SDS011;65903;51.452;7.198;2023-03-13T00:09:36;11.00;;;3.40;;
76964;SDS011;65903;51.452;7.198;2023-03-13T00:10:38;13.57;;;4.03;;
76964;SDS011;65903;51.452;7.198;2023-03-13T00:11:39;12.70;;;3.35;;
76964;SDS011;65903;51.452;7.198;2023-03-13T00:12:42;14.07;;;3.83;;
76964;SDS011;65903;51.452;7.198;2023-03-13T00:13:43;15.40;;;3.35;;
76964;SDS011;65903;51.452;7.198;2023-03-13T00:14:47;14.63;;;3.50;;
76964;SDS011;65903;51.452;7.198;2023-03-13T00:15:47;17.58;;;4.53;;
76964;SDS011;65903;51.452;7.198;2023-03-13T00:16:48;12.68;;;3.33;;
76964;SDS011;65903;51.452;7.198;2023-03-13T00:17:49;13.38;;;3.20;;
76964;SDS011;65903;51.452;7.198;2023-03-13T00:18:52;14.20;;;3.53;;
76964;SDS011;65903;51.452;7.198;2023-03-13T00:19:54;15.95;;;3.40;;
76964;SDS011;65903;51.452;7.198;2023-03-13T00:21:13;13.85;;;3.45;;
76964;SDS011;65903;51.452;7.198;2023-03-13T00:22:14;13.30;;;4.30;;
76964;SDS011;65903;51.452;7.198;2023-03-13T00:23:15;14.07;;;4.05;;
76964;SDS011;65903;51.452;7.198;2023-03-13T00:24:16;13.35;;;3.63;;
76964;SDS011;65903;51.452;7.198;2023-03-13T00:25:17;11.27;;;2.95;;
76964;SDS011;65903;51.452;7.198;2023-03-13T00:26:21;11.63;;;4.07;;
76964;SDS011;65903;51.452;7.198;2023-03-13T00:27:23;17.00;;;3.65;;
76964;SDS011;65903;51.452;7.198;2023-03-13T00:28:27;14.60;;;4.10;;
76964;SDS011;65903;51.452;7.198;2023-03-13T00:29:29;13.48;;;3.30;;
76964;SDS011;65903;51.452;7.198;2023-03-13T00:30:31;17.92;;;3.75;;
76964;SDS011;65903;51.452;7.198;2023-03-13T00:31:32;14.93;;;3.70;;
76964;SDS011;65903;51.452;7.198;2023-03-13T00:32:42;15.20;;;3.58;;
76964;SDS011;65903;51.452;7.198;2023-03-13T00:33:44;14.20;;;3.80;;
76964;SDS011;65903;51.452;7.198;2023-03-13T00:34:46;8.63;;;3.20;;
76964;SDS011;65903;51.452;7.198;2023-03-13T00:35:47;17.02;;;3.88;;
76964;SDS011;65903;51.452;7.198;2023-03-13T00:36:50;13.27;;;3.33;;
76964;SDS011;65903;51.452;7.198;2023-03-13T00:37:54;13.73;;;3.15;;
76964;SDS011;65903;51.452;7.198;2023-03-13T00:38:57;14.65;;;3.75;;
76964;SDS011;65903;51.452;7.198;2023-03-13T00:40:01;21.00;;;4.55;;
76964;SDS011;65903;51.452;7.198;2023-03-13T00:42:11;15.43;;;3.90;;
76964;SDS011;65903;51.452;7.198;2023-03-13T00:43:12;11.60;;;3.50;;
76964;SDS011;65903;51.452;7.198;2023-03-13T00:44:13;13.27;;;3.80;;
76964;SDS011;65903;51.452;7.198;2023-03-13T00:45:14;17.33;;;3.85;;
76964;SDS011;65903;51.452;7.198;2023-03-13T00:46:18;9.52;;;3.10;;
76964;SDS011;65903;51.452;7.198;2023-03-13T00:47:20;12.15;;;3.63;;
76964;SDS011;65903;51.452;7.198;2023-03-13T00:48:21;10.75;;;3.40;;
76964;SDS011;65903;51.452;7.198;2023-03-13T00:49:23;14.02;;;3.70;;
76964;SDS011;65903;51.452;7.198;2023-03-13T00:50:28;18.00;;;3.92;;
76964;SDS011;65903;51.452;7.198;2023-03-13T00:51:29;16.80;;;3.20;;
76964;SDS011;65903;51.452;7.198;2023-03-13T00:52:30;12.40;;;3.10;;
76964;SDS011;65903;51.452;7.198;2023-03-13T00:53:33;15.63;;;3.53;;
76964;SDS011;65903;51.452;7.198;2023-03-13T00:54:35;14.15;;;3.90;;
76964;SDS011;65903;51.452;7.198;2023-03-13T00:55:38;8.65;;;3.17;;
76964;SDS011;65903;51.452;7.198;2023-03-13T00:56:39;12.05;;;3.50;;
76964;SDS011;65903;51.452;7.198;2023-03-13T00:57:42;11.77;;;3.35;;
76964;SDS011;65903;51.452;7.198;2023-03-13T00:58:44;12.85;;;3.40;;
76964;SDS011;65903;51.452;7.198;2023-03-13T00:59:45;13.68;;;3.95;;
76964;SDS011;65903;51.452;7.198;2023-03-13T01:00:46;16.77;;;4.00;;
76964;SDS011;65903;51.452;7.198;2023-03-13T01:01:47;12.65;;;2.97;;
76964;SDS011;65903;51.452;7.198;2023-03-13T01:02:48;18.02;;;3.45;;
76964;SDS011;65903;51.452;7.198;2023-03-13T01:03:50;11.98;;;3.25;;
76964;SDS011;65903;51.452;7.198;2023-03-13T01:04:58;24.52;;;4.03;;
76964;SDS011;65903;51.452;7.198;2023-03-13T01:06:00;12.95;;;3.20;;
76964;SDS011;65903;51.452;7.198;2023-03-13T01:07:04;15.27;;;3.42;;
76964;SDS011;65903;51.452;7.198;2023-03-13T01:08:04;13.35;;;3.03;;
76964;SDS011;65903;51.452;7.198;2023-03-13T01:09:05;14.55;;;3.20;;
76964;SDS011;65903;51.452;7.198;2023-03-13T01:10:07;15.82;;;3.42;;
76964;SDS011;65903;51.452;7.198;2023-03-13T01:11:11;15.02;;;3.45;;
76964;SDS011;65903;51.452;7.198;2023-03-13T01:12:13;13.43;;;4.35;;
76964;SDS011;65903;51.452;7.198;2023-03-13T01:13:13;12.68;;;3.33;;
76964;SDS011;65903;51.452;7.198;2023-03-13T01:14:15;13.43;;;3.20;;
76964;SDS011;65903;51.452;7.198;2023-03-13T01:15:17;16.58;;;3.20;;
76964;SDS011;65903;51.452;7.198;2023-03-13T01:16:19;15.32;;;4.30;;
76964;SDS011;65903;51.452;7.198;2023-03-13T01:17:20;13.57;;;3.60;;
76964;SDS011;65903;51.452;7.198;2023-03-13T01:18:22;15.90;;;3.53;;
76964;SDS011;65903;51.452;7.198;2023-03-13T01:19:23;11.13;;;3.05;;
76964;SDS011;65903;51.452;7.198;2023-03-13T01:20:26;14.90;;;3.40;;
76964;SDS011;65903;51.452;7.198;2023-03-13T01:22:29;13.35;;;3.75;;
76964;SDS011;65903;51.452;7.198;2023-03-13T01:23:30;12.65;;;3.63;;
76964;SDS011;65903;51.452;7.198;2023-03-13T01:24:31;14.52;;;3.47;;
76964;SDS011;65903;51.452;7.198;2023-03-13T01:25:34;16.38;;;3.05;;
76964;SDS011;65903;51.452;7.198;2023-03-13T01:26:39;10.32;;;2.65;;
76964;SDS011;65903;51.452;7.198;2023-03-13T01:27:42;14.30;;;3.67;;
76964;SDS011;65903;51.452;7.198;2023-03-13T01:28:43;15.25;;;3.53;;
76964;SDS011;65903;51.452;7.198;2023-03-13T01:29:46;10.60;;;3.10;;
76964;SDS011;65903;51.452;7.198;2023-03-13T01:30:46;13.98;;;3.13;;
76964;SDS011;65903;51.452;7.198;2023-03-13T01:31:49;10.32;;;2.90;;
76964;SDS011;65903;51.452;7.198;2023-03-13T01:32:53;15.25;;;3.33;;
76964;SDS011;65903;51.452;7.198;2023-03-13T01:33:54;11.73;;;2.90;;
76964;SDS011;65903;51.452;7.198;2023-03-13T01:34:59;17.58;;;3.70;;
76964;SDS011;65903;51.452;7.198;2023-03-13T01:36:00;11.82;;;2.78;;
76964;SDS011;65903;51.452;7.198;2023-03-13T01:37:01;15.57;;;3.47;;
76964;SDS011;65903;51.452;7.198;2023-03-13T01:38:04;17.60;;;3.58;;
76964;SDS011;65903;51.452;7.198;2023-03-13T01:39:08;14.43;;;3.00;;
76964;SDS011;65903;51.452;7.198;2023-03-13T01:40:09;9.77;;;3.05;;
76964;SDS011;65903;51.452;7.198;2023-03-13T01:41:10;10.82;;;2.90;;
76964;SDS011;65903;51.452;7.198;2023-03-13T01:42:11;15.25;;;3.30;;
76964;SDS011;65903;51.452;7.198;2023-03-13T01:43:18;14.63;;;3.70;;
76964;SDS011;65903;51.452;7.198;2023-03-13T01:44:25;10.00;;;2.95;;
76964;SDS011;65903;51.452;7.198;2023-03-13T01:46:50;9.68;;;3.15;;
76964;SDS011;65903;51.452;7.198;2023-03-13T01:47:53;14.50;;;4.20;;
76964;SDS011;65903;51.452;7.198;2023-03-13T01:49:07;7.50;;;2.72;;
76964;SDS011;65903;51.452;7.198;2023-03-13T01:50:11;14.05;;;3.40;;
76964;SDS011;65903;51.452;7.198;2023-03-13T01:52:24;13.57;;;3.15;;
76964;SDS011;65903;51.452;7.198;2023-03-13T01:53:26;14.15;;;3.60;;
76964;SDS011;65903;51.452;7.198;2023-03-13T01:54:29;16.88;;;3.20;;
76964;SDS011;65903;51.452;7.198;2023-03-13T01:55:36;16.67;;;3.67;;
76964;SDS011;65903;51.452;7.198;2023-03-13T01:57:47;13.43;;;3.33;;
76964;SDS011;65903;51.452;7.198;2023-03-13T01:58:50;13.52;;;3.80;;
76964;SDS011;65903;51.452;7.198;2023-03-13T01:59:53;14.23;;;3.45;;
76964;SDS011;65903;51.452;7.198;2023-03-13T02:00:57;18.88;;;3.50;;
76964;SDS011;65903;51.452;7.198;2023-03-13T02:01:59;19.10;;;3.70;;
76964;SDS011;65903;51.452;7.198;2023-03-13T02:03:05;14.63;;;3.17;;
76964;SDS011;65903;51.452;7.198;2023-03-13T02:04:14;8.52;;;2.75;;
76964;SDS011;65903;51.452;7.198;2023-03-13T02:05:19;17.35;;;3.20;;
76964;SDS011;65903;51.452;7.198;2023-03-13T02:06:23;15.52;;;4.20;;
76964;SDS011;65903;51.452;7.198;2023-03-13T02:07:36;15.52;;;4.45;;
76964;SDS011;65903;51.452;7.198;2023-03-13T02:08:41;13.60;;;3.13;;
76964;SDS011;65903;51.452;7.198;2023-03-13T02:09:50;17.27;;;4.32;;
76964;SDS011;65903;51.452;7.198;2023-03-13T02:11:01;10.65;;;3.65;;
76964;SDS011;65903;51.452;7.198;2023-03-13T02:12:10;13.50;;;4.05;;
76964;SDS011;65903;51.452;7.198;2023-03-13T02:13:13;12.48;;;3.22;;
76964;SDS011;65903;51.452;7.198;2023-03-13T02:14:16;22.63;;;4.53;;
76964;SDS011;65903;51.452;7.198;2023-03-13T02:16:20;17.23;;;3.72;;
76964;SDS011;65903;51.452;7.198;2023-03-13T02:17:23;18.13;;;3.88;;
76964;SDS011;65903;51.452;7.198;2023-03-13T02:18:24;14.10;;;4.57;;
76964;SDS011;65903;51.452;7.198;2023-03-13T02:20:42;12.70;;;3.63;;
76964;SDS011;65903;51.452;7.198;2023-03-13T02:21:54;13.02;;;3.30;;
76964;SDS011;65903;51.452;7.198;2023-03-13T02:26:24;17.00;;;3.85;;
76964;SDS011;65903;51.452;7.198;2023-03-13T02:27:27;16.85;;;4.43;;
76964;SDS011;65903;51.452;7.198;2023-03-13T02:28:32;15.75;;;3.55;;
76964;SDS011;65903;51.452;7.198;2023-03-13T02:29:38;16.25;;;3.50;;
76964;SDS011;65903;51.452;7.198;2023-03-13T02:30:43;19.55;;;4.45;;
76964;SDS011;65903;51.452;7.198;2023-03-13T02:31:47;13.20;;;4.22;;
76964;SDS011;65903;51.452;7.198;2023-03-13T02:32:48;14.90;;;3.67;;
76964;SDS011;65903;51.452;7.198;2023-03-13T02:33:49;18.38;;;4.35;;
76964;SDS011;65903;51.452;7.198;2023-03-13T02:34:50;13.20;;;3.53;;
76964;SDS011;65903;51.452;7.198;2023-03-13T02:35:55;16.63;;;3.88;;
76964;SDS011;65903;51.452;7.198;2023-03-13T02:36:58;14.93;;;3.97;;
76964;SDS011;65903;51.452;7.198;2023-03-13T02:38:00;17.35;;;4.13;;
76964;SDS011;65903;51.452;7.198;2023-03-13T02:39:03;13.68;;;3.75;;
76964;SDS011;65903;51.452;7.198;2023-03-13T02:40:08;14.73;;;3.70;;
76964;SDS011;65903;51.452;7.198;2023-03-13T02:41:14;16.17;;;3.78;;
76964;SDS011;65903;51.452;7.198;2023-03-13T02:42:16;15.13;;;3.85;;
76964;SDS011;65903;51.452;7.198;2023-03-13T02:43:36;15.80;;;4.07;;
76964;SDS011;65903;51.452;7.198;2023-03-13T02:44:40;13.65;;;3.15;;
76964;SDS011;65903;51.452;7.198;2023-03-13T02:47:04;15.00;;;4.25;;
76964;SDS011;65903;51.452;7.198;2023-03-13T02:48:09;15.02;;;3.38;;
76964;SDS011;65903;51.452;7.198;2023-03-13T02:49:20;15.18;;;3.67;;
76964;SDS011;65903;51.452;7.198;2023-03-13T02:50:23;9.38;;;3.00;;
76964;SDS011;65903;51.452;7.198;2023-03-13T02:51:37;14.55;;;3.17;;
76964;SDS011;65903;51.452;7.198;2023-03-13T02:52:45;17.83;;;4.32;;
76964;SDS011;65903;51.452;7.198;2023-03-13T02:53:50;8.15;;;3.22;;
76964;SDS011;65903;51.452;7.198;2023-03-13T02:54:55;11.38;;;3.10;;
76964;SDS011;65903;51.452;7.198;2023-03-13T02:55:58;10.15;;;3.55;;
76964;SDS011;65903;51.452;7.198;2023-03-13T02:57:00;13.52;;;3.42;;
76964;SDS011;65903;51.452;7.198;2023-03-13T02:58:02;14.65;;;3.30;;
76964;SDS011;65903;51.452;7.198;2023-03-13T02:59:03;13.55;;;4.00;;
76964;SDS011;65903;51.452;7.198;2023-03-13T03:00:05;12.23;;;3.35;;
76964;SDS011;65903;51.452;7.198;2023-03-13T03:01:12;12.10;;;3.45;;
76964;SDS011;65903;51.452;7.198;2023-03-13T03:02:12;12.23;;;3.40;;
76964;SDS011;65903;51.452;7.198;2023-03-13T03:03:13;11.48;;;3.60;;
76964;SDS011;65903;51.452;7.198;2023-03-13T03:04:14;18.02;;;3.63;;
76964;SDS011;65903;51.452;7.198;2023-03-13T03:05:15;11.32;;;3.60;;
76964;SDS011;65903;51.452;7.198;2023-03-13T03:06:15;15.48;;;5.03;;
76964;SDS011;65903;51.452;7.198;2023-03-13T03:07:16;12.02;;;3.38;;
76964;SDS011;65903;51.452;7.198;2023-03-13T03:08:19;6.00;;;2.50;;
76964;SDS011;65903;51.452;7.198;2023-03-13T03:09:21;12.05;;;3.78;;
76964;SDS011;65903;51.452;7.198;2023-03-13T03:10:24;19.25;;;5.07;;
76964;SDS011;65903;51.452;7.198;2023-03-13T03:12:31;10.93;;;3.70;;
76964;SDS011;65903;51.452;7.198;2023-03-13T03:13:34;5.22;;;3.50;;
76964;SDS011;65903;51.452;7.198;2023-03-13T03:14:35;15.32;;;3.75;;
76964;SDS011;65903;51.452;7.198;2023-03-13T03:15:36;11.45;;;3.70;;
76964;SDS011;65903;51.452;7.198;2023-03-13T03:16:37;10.82;;;3.60;;
76964;SDS011;65903;51.452;7.198;2023-03-13T03:17:40;11.52;;;3.30;;
76964;SDS011;65903;51.452;7.198;2023-03-13T03:18:41;11.82;;;3.55;;
76964;SDS011;65903;51.452;7.198;2023-03-13T03:19:42;12.30;;;3.70;;
76964;SDS011;65903;51.452;7.198;2023-03-13T03:20:42;11.30;;;3.53;;
76964;SDS011;65903;51.452;7.198;2023-03-13T03:21:45;13.20;;;3.15;;
76964;SDS011;65903;51.452;7.198;2023-03-13T03:22:48;8.25;;;2.78;;
76964;SDS011;65903;51.452;7.198;2023-03-13T03:23:49;10.88;;;3.55;;
76964;SDS011;65903;51.452;7.198;2023-03-13T03:24:50;16.13;;;3.08;;
76964;SDS011;65903;51.452;7.198;2023-03-13T03:25:51;12.43;;;3.75;;
76964;SDS011;65903;51.452;7.198;2023-03-13T03:26:52;11.45;;;4.20;;
76964;SDS011;65903;51.452;7.198;2023-03-13T03:27:53;10.85;;;2.80;;
76964;SDS011;65903;51.452;7.198;2023-03-13T03:28:54;11.60;;;3.42;;
76964;SDS011;65903;51.452;7.198;2023-03-13T03:29:57;12.60;;;3.35;;
76964;SDS011;65903;51.452;7.198;2023-03-13T03:31:02;8.93;;;3.05;;
76964;SDS011;65903;51.452;7.198;2023-03-13T03:32:04;11.02;;;3.30;;
76964;SDS011;65903;51.452;7.198;2023-03-13T03:33:05;8.02;;;3.13;;
76964;SDS011;65903;51.452;7.198;2023-03-13T03:34:06;10.65;;;3.28;;
76964;SDS011;65903;51.452;7.198;2023-03-13T03:35:07;9.10;;;3.42;;
76964;SDS011;65903;51.452;7.198;2023-03-13T03:36:09;10.73;;;3.75;;
76964;SDS011;65903;51.452;7.198;2023-03-13T03:37:13;10.10;;;3.35;;
76964;SDS011;65903;51.452;7.198;2023-03-13T03:38:16;10.13;;;3.38;;
76964;SDS011;65903;51.452;7.198;2023-03-13T03:39:16;7.75;;;3.47;;
76964;SDS011;65903;51.452;7.198;2023-03-13T03:40:17;9.45;;;3.28;;
76964;SDS011;65903;51.452;7.198;2023-03-13T03:41:20;9.50;;;2.80;;
76964;SDS011;65903;51.452;7.198;2023-03-13T03:42:21;8.23;;;3.25;;
76964;SDS011;65903;51.452;7.198;2023-03-13T03:43:24;7.45;;;2.90;;
76964;SDS011;65903;51.452;7.198;2023-03-13T03:44:27;9.85;;;3.08;;
76964;SDS011;65903;51.452;7.198;2023-03-13T03:45:30;7.95;;;2.85;;
76964;SDS011;65903;51.452;7.198;2023-03-13T03:46:31;10.20;;;3.13;;
76964;SDS011;65903;51.452;7.198;2023-03-13T03:47:34;6.80;;;2.63;;
76964;SDS011;65903;51.452;7.198;2023-03-13T03:48:37;6.13;;;2.75;;
76964;SDS011;65903;51.452;7.198;2023-03-13T03:49:38;11.02;;;2.72;;
76964;SDS011;65903;51.452;7.198;2023-03-13T03:50:38;7.82;;;2.67;;
76964;SDS011;65903;51.452;7.198;2023-03-13T03:51:42;7.85;;;2.95;;
76964;SDS011;65903;51.452;7.198;2023-03-13T03:52:48;8.75;;;2.85;;
76964;SDS011;65903;51.452;7.198;2023-03-13T03:53:51;9.07;;;2.63;;
76964;SDS011;65903;51.452;7.198;2023-03-13T03:54:51;11.45;;;3.25;;
76964;SDS011;65903;51.452;7.198;2023-03-13T03:55:52;6.18;;;2.65;;
76964;SDS011;65903;51.452;7.198;2023-03-13T03:56:53;8.60;;;2.90;;
76964;SDS011;65903;51.452;7.198;2023-03-13T03:57:54;7.95;;;2.70;;
76964;SDS011;65903;51.452;7.198;2023-03-13T03:58:57;5.95;;;2.55;;
76964;SDS011;65903;51.452;7.198;2023-03-13T04:00:00;7.50;;;2.50;;
76964;SDS011;65903;51.452;7.198;2023-03-13T04:01:01;6.85;;;2.80;;
76964;SDS011;65903;51.452;7.198;2023-03-13T04:02:02;4.50;;;2.20;;
76964;SDS011;65903;51.452;7.198;2023-03-13T04:03:03;6.63;;;2.35;;
76964;SDS011;65903;51.452;7.198;2023-03-13T04:04:04;8.43;;;3.03;;
76964;SDS011;65903;51.452;7.198;2023-03-13T04:06:10;8.82;;;2.58;;
76964;SDS011;65903;51.452;7.198;2023-03-13T04:08:13;6.70;;;2.83;;
76964;SDS011;65903;51.452;7.198;2023-03-13T04:09:15;8.70;;;2.97;;
76964;SDS011;65903;51.452;7.198;2023-03-13T04:10:18;9.55;;;3.10;;
76964;SDS011;65903;51.452;7.198;2023-03-13T04:11:21;6.05;;;2.33;;
76964;SDS011;65903;51.452;7.198;2023-03-13T04:12:22;7.00;;;2.30;;
76964;SDS011;65903;51.452;7.198;2023-03-13T04:13:22;5.00;;;2.55;;
76964;SDS011;65903;51.452;7.198;2023-03-13T04:14:25;9.23;;;3.10;;
76964;SDS011;65903;51.452;7.198;2023-03-13T04:15:25;6.50;;;2.45;;
76964;SDS011;65903;51.452;7.198;2023-03-13T04:16:26;8.60;;;2.80;;
76964;SDS011;65903;51.452;7.198;2023-03-13T04:17:27;4.28;;;2.58;;
76964;SDS011;65903;51.452;7.198;2023-03-13T04:18:27;6.65;;;2.55;;
76964;SDS011;65903;51.452;7.198;2023-03-13T04:19:28;4.68;;;2.30;;
76964;SDS011;65903;51.452;7.198;2023-03-13T04:20:29;9.70;;;2.80;;
76964;SDS011;65903;51.452;7.198;2023-03-13T04:21:32;8.85;;;2.80;;
76964;SDS011;65903;51.452;7.198;2023-03-13T04:22:33;5.63;;;2.63;;
76964;SDS011;65903;51.452;7.198;2023-03-13T04:23:34;5.55;;;2.33;;
76964;SDS011;65903;51.452;7.198;2023-03-13T04:24:35;9.27;;;2.70;;
76964;SDS011;65903;51.452;7.198;2023-03-13T04:25:36;6.72;;;3.25;;
76964;SDS011;65903;51.452;7.198;2023-03-13T04:26:40;7.22;;;2.60;;
76964;SDS011;65903;51.452;7.198;2023-03-13T04:27:43;5.45;;;2.38;;
76964;SDS011;65903;51.452;7.198;2023-03-13T04:28:44;8.65;;;2.42;;
76964;SDS011;65903;51.452;7.198;2023-03-13T04:29:47;8.13;;;2.63;;
76964;SDS011;65903;51.452;7.198;2023-03-13T04:30:48;10.00;;;2.90;;
76964;SDS011;65903;51.452;7.198;2023-03-13T04:31:49;6.57;;;2.85;;
76964;SDS011;65903;51.452;7.198;2023-03-13T04:32:50;7.53;;;2.75;;
76964;SDS011;65903;51.452;7.198;2023-03-13T04:33:50;5.55;;;3.05;;
76964;SDS011;65903;51.452;7.198;2023-03-13T04:34:54;9.70;;;3.03;;
76964;SDS011;65903;51.452;7.198;2023-03-13T04:35:54;9.98;;;3.28;;
76964;SDS011;65903;51.452;7.198;2023-03-13T04:36:55;6.78;;;2.72;;
76964;SDS011;65903;51.452;7.198;2023-03-13T04:37:56;5.07;;;2.40;;
76964;SDS011;65903;51.452;7.198;2023-03-13T04:39:00;7.30;;;3.25;;
76964;SDS011;65903;51.452;7.198;2023-03-13T04:40:01;7.05;;;3.40;;
76964;SDS011;65903;51.452;7.198;2023-03-13T04:41:02;7.32;;;2.97;;
76964;SDS011;65903;51.452;7.198;2023-03-13T04:42:11;3.90;;;2.53;;
76964;SDS011;65903;51.452;7.198;2023-03-13T04:43:14;4.97;;;2.85;;
76964;SDS011;65903;51.452;7.198;2023-03-13T04:44:15;5.57;;;2.60;;
76964;SDS011;65903;51.452;7.198;2023-03-13T04:45:16;7.40;;;3.90;;
76964;SDS011;65903;51.452;7.198;2023-03-13T04:46:19;6.15;;;3.00;;
76964;SDS011;65903;51.452;7.198;2023-03-13T04:47:20;5.72;;;3.20;;
76964;SDS011;65903;51.452;7.198;2023-03-13T04:48:21;4.90;;;2.50;;
76964;SDS011;65903;51.452;7.198;2023-03-13T04:49:22;7.00;;;3.10;;
76964;SDS011;65903;51.452;7.198;2023-03-13T04:50:22;8.35;;;3.22;;
76964;SDS011;65903;51.452;7.198;2023-03-13T04:51:28;6.93;;;2.88;;
76964;SDS011;65903;51.452;7.198;2023-03-13T04:52:32;8.38;;;3.35;;
76964;SDS011;65903;51.452;7.198;2023-03-13T04:53:32;5.22;;;2.83;;
76964;SDS011;65903;51.452;7.198;2023-03-13T04:54:33;4.30;;;2.88;;
76964;SDS011;65903;51.452;7.198;2023-03-13T04:55:34;5.20;;;2.28;;
76964;SDS011;65903;51.452;7.198;2023-03-13T04:57:38;5.93;;;2.55;;
76964;SDS011;65903;51.452;7.198;2023-03-13T04:58:39;4.32;;;2.58;;
76964;SDS011;65903;51.452;7.198;2023-03-13T04:59:39;7.45;;;2.58;;
76964;SDS011;65903;51.452;7.198;2023-03-13T05:00:40;5.05;;;2.63;;
76964;SDS011;65903;51.452;7.198;2023-03-13T05:01:41;6.57;;;2.83;;
76964;SDS011;65903;51.452;7.198;2023-03-13T05:02:42;4.20;;;2.60;;
76964;SDS011;65903;51.452;7.198;2023-03-13T05:03:45;4.47;;;2.50;;
76964;SDS011;65903;51.452;7.198;2023-03-13T05:04:46;6.60;;;2.63;;
76964;SDS011;65903;51.452;7.198;2023-03-13T05:05:47;5.25;;;2.72;;
76964;SDS011;65903;51.452;7.198;2023-03-13T05:06:48;5.68;;;3.05;;
76964;SDS011;65903;51.452;7.198;2023-03-13T05:07:51;5.38;;;2.63;;
76964;SDS011;65903;51.452;7.198;2023-03-13T05:08:54;4.40;;;2.70;;
76964;SDS011;65903;51.452;7.198;2023-03-13T05:09:55;5.03;;;2.70;;
76964;SDS011;65903;51.452;7.198;2023-03-13T05:10:56;5.45;;;2.97;;
76964;SDS011;65903;51.452;7.198;2023-03-13T05:11:57;4.97;;;2.50;;
76964;SDS011;65903;51.452;7.198;2023-03-13T05:12:57;4.30;;;2.25;;
76964;SDS011;65903;51.452;7.198;2023-03-13T05:13:58;4.50;;;2.70;;
76964;SDS011;65903;51.452;7.198;2023-03-13T05:15:01;4.50;;;2.30;;
76964;SDS011;65903;51.452;7.198;2023-03-13T05:16:04;4.07;;;2.40;;
76964;SDS011;65903;51.452;7.198;2023-03-13T05:17:08;5.88;;;2.75;;
76964;SDS011;65903;51.452;7.198;2023-03-13T05:18:10;4.88;;;2.50;;
76964;SDS011;65903;51.452;7.198;2023-03-13T05:19:12;4.53;;;3.05;;
76964;SDS011;65903;51.452;7.198;2023-03-13T05:20:17;5.38;;;2.70;;
76964;SDS011;65903;51.452;7.198;2023-03-13T05:21:18;4.57;;;2.60;;
76964;SDS011;65903;51.452;7.198;2023-03-13T05:22:21;7.57;;;2.72;;
76964;SDS011;65903;51.452;7.198;2023-03-13T05:23:21;5.80;;;2.50;;
76964;SDS011;65903;51.452;7.198;2023-03-13T05:24:22;7.18;;;3.20;;
76964;SDS011;65903;51.452;7.198;2023-03-13T05:25:23;3.38;;;2.40;;
76964;SDS011;65903;51.452;7.198;2023-03-13T05:26:24;3.90;;;2.42;;
76964;SDS011;65903;51.452;7.198;2023-03-13T05:27:24;4.93;;;2.50;;
76964;SDS011;65903;51.452;7.198;2023-03-13T05:28:27;5.32;;;2.58;;
76964;SDS011;65903;51.452;7.198;2023-03-13T05:29:28;4.55;;;2.30;;
76964;SDS011;65903;51.452;7.198;2023-03-13T05:30:29;5.22;;;2.92;;
76964;SDS011;65903;51.452;7.198;2023-03-13T05:31:30;4.97;;;3.03;;
76964;SDS011;65903;51.452;7.198;2023-03-13T05:32:33;4.55;;;2.55;;
76964;SDS011;65903;51.452;7.198;2023-03-13T05:33:34;5.25;;;2.95;;
76964;SDS011;65903;51.452;7.198;2023-03-13T05:34:35;5.72;;;2.80;;
76964;SDS011;65903;51.452;7.198;2023-03-13T05:35:35;4.05;;;2.72;;
76964;SDS011;65903;51.452;7.198;2023-03-13T05:36:39;5.75;;;2.95;;
76964;SDS011;65903;51.452;7.198;2023-03-13T05:37:39;5.03;;;3.30;;
76964;SDS011;65903;51.452;7.198;2023-03-13T05:38:40;4.88;;;3.45;;
76964;SDS011;65903;51.452;7.198;2023-03-13T05:39:41;3.92;;;2.90;;
76964;SDS011;65903;51.452;7.198;2023-03-13T05:40:42;4.28;;;2.90;;
76964;SDS011;65903;51.452;7.198;2023-03-13T05:41:43;3.95;;;2.40;;
76964;SDS011;65903;51.452;7.198;2023-03-13T05:42:46;6.45;;;3.38;;
76964;SDS011;65903;51.452;7.198;2023-03-13T05:43:47;17.35;;;4.30;;
76964;SDS011;65903;51.452;7.198;2023-03-13T05:44:48;5.57;;;3.58;;
76964;SDS011;65903;51.452;7.198;2023-03-13T05:45:54;6.53;;;3.50;;
76964;SDS011;65903;51.452;7.198;2023-03-13T05:46:55;4.53;;;3.03;;
76964;SDS011;65903;51.452;7.198;2023-03-13T05:47:55;7.07;;;3.42;;
76964;SDS011;65903;51.452;7.198;2023-03-13T05:49:00;4.65;;;3.05;;
76964;SDS011;65903;51.452;7.198;2023-03-13T05:51:01;5.28;;;3.40;;
76964;SDS011;65903;51.452;7.198;2023-03-13T05:52:02;4.63;;;3.72;;
76964;SDS011;65903;51.452;7.198;2023-03-13T05:53:03;7.05;;;3.38;;
76964;SDS011;65903;51.452;7.198;2023-03-13T05:54:04;5.43;;;3.22;;
76964;SDS011;65903;51.452;7.198;2023-03-13T05:55:05;5.97;;;3.50;;
76964;SDS011;65903;51.452;7.198;2023-03-13T05:56:06;5.80;;;3.70;;
76964;SDS011;65903;51.452;7.198;2023-03-13T05:57:07;5.45;;;3.53;;
76964;SDS011;65903;51.452;7.198;2023-03-13T05:58:08;4.68;;;3.08;;
76964;SDS011;65903;51.452;7.198;2023-03-13T05:59:11;5.80;;;3.20;;
76964;SDS011;65903;51.452;7.198;2023-03-13T06:00:15;6.63;;;3.60;;
76964;SDS011;65903;51.452;7.198;2023-03-13T06:01:16;6.13;;;3.75;;
76964;SDS011;65903;51.452;7.198;2023-03-13T06:02:20;6.63;;;3.65;;
76964;SDS011;65903;51.452;7.198;2023-03-13T06:03:23;7.50;;;5.47;;
76964;SDS011;65903;51.452;7.198;2023-03-13T06:04:28;6.55;;;3.60;;
76964;SDS011;65903;51.452;7.198;2023-03-13T06:05:29;6.57;;;3.65;;
76964;SDS011;65903;51.452;7.198;2023-03-13T06:06:34;7.40;;;4.03;;
76964;SDS011;65903;51.452;7.198;2023-03-13T06:07:35;6.18;;;3.45;;
76964;SDS011;65903;51.452;7.198;2023-03-13T06:08:36;5.75;;;3.70;;
76964;SDS011;65903;51.452;7.198;2023-03-13T06:09:37;6.03;;;3.20;;
76964;SDS011;65903;51.452;7.198;2023-03-13T06:10:40;5.93;;;3.67;;
76964;SDS011;65903;51.452;7.198;2023-03-13T06:11:41;6.90;;;3.65;;
76964;SDS011;65903;51.452;7.198;2023-03-13T06:12:42;4.90;;;3.70;;
76964;SDS011;65903;51.452;7.198;2023-03-13T06:13:43;6.85;;;3.53;;
76964;SDS011;65903;51.452;7.198;2023-03-13T06:14:44;7.80;;;3.53;;
76964;SDS011;65903;51.452;7.198;2023-03-13T06:15:54;6.78;;;3.65;;
76964;SDS011;65903;51.452;7.198;2023-03-13T06:16:55;4.88;;;3.05;;
76964;SDS011;65903;51.452;7.198;2023-03-13T06:17:56;5.55;;;3.08;;
76964;SDS011;65903;51.452;7.198;2023-03-13T06:18:57;5.40;;;3.10;;
76964;SDS011;65903;51.452;7.198;2023-03-13T06:20:02;4.55;;;3.10;;
76964;SDS011;65903;51.452;7.198;2023-03-13T06:21:06;5.28;;;2.70;;
76964;SDS011;65903;51.452;7.198;2023-03-13T06:23:10;5.30;;;3.08;;
76964;SDS011;65903;51.452;7.198;2023-03-13T06:24:13;6.55;;;3.40;;
76964;SDS011;65903;51.452;7.198;2023-03-13T06:25:16;5.32;;;3.20;;
76964;SDS011;65903;51.452;7.198;2023-03-13T06:26:19;4.30;;;3.33;;
76964;SDS011;65903;51.452;7.198;2023-03-13T06:27:19;6.43;;;3.13;;
76964;SDS011;65903;51.452;7.198;2023-03-13T06:28:22;6.63;;;3.35;;
76964;SDS011;65903;51.452;7.198;2023-03-13T06:29:23;5.78;;;2.50;;
76964;SDS011;65903;51.452;7.198;2023-03-13T06:30:24;5.40;;;3.00;;
76964;SDS011;65903;51.452;7.198;2023-03-13T06:31:24;5.15;;;2.83;;
76964;SDS011;65903;51.452;7.198;2023-03-13T06:32:25;4.80;;;2.60;;
76964;SDS011;65903;51.452;7.198;2023-03-13T06:33:27;5.90;;;3.38;;